sensor_id;sensor_type;location;lat;lon;timestamp;pressure;altitude;pressure_sealevel;temperature;humidity
26376;BME280;30544;42.196;24.336;2022-12-07T00:00:00;99329.31;;;7.22;91.47
26376;BME280;30544;42.196;24.336;2022-12-07T00:02:26;99330.22;;;7.22;91.52
26376;BME280;30544;42.196;24.336;2022-12-07T00:04:53;99333.28;;;7.33;91.42
26376;BME280;30544;42.196;24.336;2022-12-07T00:07:20;99340.56;;;7.27;91.18
26376;BME280;30544;42.196;24.336;2022-12-07T00:09:48;99334.13;;;7.33;90.66
26376;BME280;30544;42.196;24.336;2022-12-07T00:12:15;99339.50;;;7.28;90.43
26376;BME280;30544;42.196;24.336;2022-12-07T00:14:41;99336.38;;;7.18;90.16
26376;BME280;30544;42.196;24.336;2022-12-07T00:17:08;99338.88;;;7.26;89.31
26376;BME280;30544;42.196;24.336;2022-12-07T00:19:35;99339.19;;;7.11;89.67
26376;BME280;30544;42.196;24.336;2022-12-07T00:22:02;99334.38;;;7.32;89.47
26376;BME280;30544;42.196;24.336;2022-12-07T00:24:28;99346.06;;;7.27;89.24
26376;BME280;30544;42.196;24.336;2022-12-07T00:26:56;99345.19;;;7.33;88.70
26376;BME280;30544;42.196;24.336;2022-12-07T00:29:23;99341.78;;;7.31;88.74
26376;BME280;30544;42.196;24.336;2022-12-07T00:31:50;99347.38;;;7.24;88.73
26376;BME280;30544;42.196;24.336;2022-12-07T00:34:19;99351.63;;;7.20;88.71
26376;BME280;30544;42.196;24.336;2022-12-07T00:36:46;99340.16;;;7.23;89.07
26376;BME280;30544;42.196;24.336;2022-12-07T00:39:13;99337.88;;;7.14;88.94
26376;BME280;30544;42.196;24.336;2022-12-07T00:41:40;99337.13;;;7.32;88.67
26376;BME280;30544;42.196;24.336;2022-12-07T00:44:08;99341.44;;;7.21;88.61
26376;BME280;30544;42.196;24.336;2022-12-07T00:46:35;99329.31;;;7.22;88.69
26376;BME280;30544;42.196;24.336;2022-12-07T00:49:02;99326.91;;;7.07;88.99
26376;BME280;30544;42.196;24.336;2022-12-07T00:51:29;99332.66;;;7.06;89.31
26376;BME280;30544;42.196;24.336;2022-12-07T00:53:55;99331.03;;;6.91;89.67
26376;BME280;30544;42.196;24.336;2022-12-07T00:56:23;99334.34;;;7.07;89.43
26376;BME280;30544;42.196;24.336;2022-12-07T00:58:52;99333.13;;;6.96;89.34
26376;BME280;30544;42.196;24.336;2022-12-07T01:01:21;99328.22;;;6.98;89.81
26376;BME280;30544;42.196;24.336;2022-12-07T01:03:48;99327.00;;;6.87;89.65
26376;BME280;30544;42.196;24.336;2022-12-07T01:06:15;99323.84;;;6.90;89.27
26376;BME280;30544;42.196;24.336;2022-12-07T01:08:43;99314.28;;;6.86;89.56
26376;BME280;30544;42.196;24.336;2022-12-07T01:11:14;99312.84;;;6.84;89.97
26376;BME280;30544;42.196;24.336;2022-12-07T01:13:42;99306.53;;;6.77;89.94
26376;BME280;30544;42.196;24.336;2022-12-07T01:16:10;99305.00;;;6.81;90.07
26376;BME280;30544;42.196;24.336;2022-12-07T01:18:38;99311.19;;;6.76;90.15
26376;BME280;30544;42.196;24.336;2022-12-07T01:21:07;99306.66;;;6.88;89.87
26376;BME280;30544;42.196;24.336;2022-12-07T01:23:35;99302.03;;;6.82;89.53
26376;BME280;30544;42.196;24.336;2022-12-07T01:26:05;99293.59;;;6.71;89.69
26376;BME280;30544;42.196;24.336;2022-12-07T01:28:32;99301.03;;;6.70;90.08
26376;BME280;30544;42.196;24.336;2022-12-07T01:31:01;99292.19;;;6.61;90.21
26376;BME280;30544;42.196;24.336;2022-12-07T01:33:33;99294.28;;;6.66;90.46
26376;BME280;30544;42.196;24.336;2022-12-07T01:36:02;99294.09;;;6.61;90.81
26376;BME280;30544;42.196;24.336;2022-12-07T01:38:30;99295.63;;;6.57;91.06
26376;BME280;30544;42.196;24.336;2022-12-07T01:40:57;99286.63;;;6.68;90.37
26376;BME280;30544;42.196;24.336;2022-12-07T01:43:27;99283.75;;;6.56;90.46
26376;BME280;30544;42.196;24.336;2022-12-07T01:45:54;99281.63;;;6.58;90.58
26376;BME280;30544;42.196;24.336;2022-12-07T01:48:24;99282.47;;;6.59;90.31
26376;BME280;30544;42.196;24.336;2022-12-07T01:50:56;99288.03;;;6.84;89.87
26376;BME280;30544;42.196;24.336;2022-12-07T01:53:29;99280.25;;;6.74;89.65
26376;BME280;30544;42.196;24.336;2022-12-07T01:55:57;99278.31;;;6.43;90.43
26376;BME280;30544;42.196;24.336;2022-12-07T01:58:25;99278.69;;;6.47;90.83
26376;BME280;30544;42.196;24.336;2022-12-07T02:00:52;99274.03;;;6.47;90.65
26376;BME280;30544;42.196;24.336;2022-12-07T02:03:22;99271.19;;;6.22;91.28
26376;BME280;30544;42.196;24.336;2022-12-07T02:05:51;99282.56;;;6.32;91.12
26376;BME280;30544;42.196;24.336;2022-12-07T02:08:19;99277.13;;;6.26;90.82
26376;BME280;30544;42.196;24.336;2022-12-07T02:10:48;99269.91;;;6.25;91.16
26376;BME280;30544;42.196;24.336;2022-12-07T02:13:17;99275.38;;;6.31;91.36
26376;BME280;30544;42.196;24.336;2022-12-07T02:15:58;99265.81;;;6.34;91.44
26376;BME280;30544;42.196;24.336;2022-12-07T02:18:38;99263.84;;;6.03;92.25
26376;BME280;30544;42.196;24.336;2022-12-07T02:21:12;99261.75;;;6.05;92.43
26376;BME280;30544;42.196;24.336;2022-12-07T02:24:28;99259.56;;;6.14;92.23
26376;BME280;30544;42.196;24.336;2022-12-07T02:30:01;99265.13;;;6.07;92.74
26376;BME280;30544;42.196;24.336;2022-12-07T02:32:40;99264.91;;;6.02;92.87
26376;BME280;30544;42.196;24.336;2022-12-07T02:35:11;99259.84;;;5.86;93.17
26376;BME280;30544;42.196;24.336;2022-12-07T02:37:42;99257.97;;;5.66;94.73
26376;BME280;30544;42.196;24.336;2022-12-07T02:40:18;99255.66;;;5.77;94.74
26376;BME280;30544;42.196;24.336;2022-12-07T02:42:47;99255.88;;;5.75;94.20
26376;BME280;30544;42.196;24.336;2022-12-07T02:45:18;99261.78;;;5.79;94.26
26376;BME280;30544;42.196;24.336;2022-12-07T02:47:50;99258.53;;;6.08;93.39
26376;BME280;30544;42.196;24.336;2022-12-07T02:50:18;99263.47;;;5.93;93.03
26376;BME280;30544;42.196;24.336;2022-12-07T02:52:45;99266.41;;;5.85;92.78
26376;BME280;30544;42.196;24.336;2022-12-07T02:55:15;99259.44;;;5.82;93.50
26376;BME280;30544;42.196;24.336;2022-12-07T02:57:53;99263.25;;;5.81;93.32
26376;BME280;30544;42.196;24.336;2022-12-07T03:00:23;99272.16;;;5.70;93.17
26376;BME280;30544;42.196;24.336;2022-12-07T03:02:53;99269.00;;;5.66;93.91
26376;BME280;30544;42.196;24.336;2022-12-07T03:05:59;99259.50;;;5.49;94.38
26376;BME280;30544;42.196;24.336;2022-12-07T03:08:35;99260.75;;;5.53;94.91
26376;BME280;30544;42.196;24.336;2022-12-07T03:11:07;99258.91;;;5.21;96.51
26376;BME280;30544;42.196;24.336;2022-12-07T03:13:40;99248.13;;;5.12;97.32
26376;BME280;30544;42.196;24.336;2022-12-07T03:16:12;99248.94;;;5.46;96.37
26376;BME280;30544;42.196;24.336;2022-12-07T03:18:44;99243.88;;;5.43;95.94
26376;BME280;30544;42.196;24.336;2022-12-07T03:21:17;99240.47;;;5.41;95.48
26376;BME280;30544;42.196;24.336;2022-12-07T03:23:49;99244.94;;;5.42;94.98
26376;BME280;30544;42.196;24.336;2022-12-07T03:26:19;99243.00;;;5.36;95.14
26376;BME280;30544;42.196;24.336;2022-12-07T03:28:52;99245.16;;;5.27;95.76
26376;BME280;30544;42.196;24.336;2022-12-07T03:31:23;99253.00;;;5.24;95.73
26376;BME280;30544;42.196;24.336;2022-12-07T03:33:55;99245.13;;;5.34;95.68
26376;BME280;30544;42.196;24.336;2022-12-07T03:36:26;99247.88;;;5.34;95.87
26376;BME280;30544;42.196;24.336;2022-12-07T03:39:01;99254.00;;;5.36;95.77
26376;BME280;30544;42.196;24.336;2022-12-07T03:41:31;99245.78;;;5.29;95.30
26376;BME280;30544;42.196;24.336;2022-12-07T03:44:00;99245.59;;;5.24;95.12
26376;BME280;30544;42.196;24.336;2022-12-07T03:46:35;99236.03;;;5.20;95.58
26376;BME280;30544;42.196;24.336;2022-12-07T03:49:10;99246.00;;;5.21;95.38
26376;BME280;30544;42.196;24.336;2022-12-07T03:51:42;99240.50;;;5.08;95.78
26376;BME280;30544;42.196;24.336;2022-12-07T03:54:14;99243.25;;;5.28;95.53
26376;BME280;30544;42.196;24.336;2022-12-07T03:56:43;99242.16;;;5.35;95.58
26376;BME280;30544;42.196;24.336;2022-12-07T03:59:11;99239.44;;;5.09;95.25
26376;BME280;30544;42.196;24.336;2022-12-07T04:01:43;99243.88;;;5.30;94.97
26376;BME280;30544;42.196;24.336;2022-12-07T04:04:10;99239.25;;;5.24;95.31
26376;BME280;30544;42.196;24.336;2022-12-07T04:06:37;99235.84;;;5.28;95.44
26376;BME280;30544;42.196;24.336;2022-12-07T04:09:04;99240.09;;;5.24;95.15
26376;BME280;30544;42.196;24.336;2022-12-07T04:11:30;99228.44;;;5.29;94.84
26376;BME280;30544;42.196;24.336;2022-12-07T04:13:57;99230.75;;;5.32;94.83
26376;BME280;30544;42.196;24.336;2022-12-07T04:16:43;99223.59;;;5.24;94.99
26376;BME280;30544;42.196;24.336;2022-12-07T04:19:09;99223.56;;;5.31;94.91
26376;BME280;30544;42.196;24.336;2022-12-07T04:21:36;99225.25;;;5.19;95.02
26376;BME280;30544;42.196;24.336;2022-12-07T04:24:04;99218.50;;;5.28;94.96
26376;BME280;30544;42.196;24.336;2022-12-07T04:26:31;99215.53;;;5.29;94.66
26376;BME280;30544;42.196;24.336;2022-12-07T04:28:57;99221.03;;;5.16;94.65
26376;BME280;30544;42.196;24.336;2022-12-07T04:31:24;99230.34;;;5.22;94.87
26376;BME280;30544;42.196;24.336;2022-12-07T04:33:52;99223.56;;;5.31;94.92
26376;BME280;30544;42.196;24.336;2022-12-07T04:36:19;99219.75;;;5.38;94.47
26376;BME280;30544;42.196;24.336;2022-12-07T04:38:46;99218.47;;;5.34;94.01
26376;BME280;30544;42.196;24.336;2022-12-07T04:41:13;99215.09;;;5.32;94.22
26376;BME280;30544;42.196;24.336;2022-12-07T04:43:40;99222.94;;;5.29;94.99
26376;BME280;30544;42.196;24.336;2022-12-07T04:46:06;99215.75;;;5.28;94.80
26376;BME280;30544;42.196;24.336;2022-12-07T04:48:33;99220.59;;;5.39;94.79
26376;BME280;30544;42.196;24.336;2022-12-07T04:51:02;99218.94;;;5.25;94.65
26376;BME280;30544;42.196;24.336;2022-12-07T04:53:28;99223.97;;;5.34;94.99
26376;BME280;30544;42.196;24.336;2022-12-07T04:55:55;99227.16;;;5.38;94.98
26376;BME280;30544;42.196;24.336;2022-12-07T04:58:22;99231.19;;;5.16;95.68
26376;BME280;30544;42.196;24.336;2022-12-07T05:00:49;99225.69;;;5.16;94.99
26376;BME280;30544;42.196;24.336;2022-12-07T05:03:15;99233.94;;;5.02;95.62
26376;BME280;30544;42.196;24.336;2022-12-07T05:05:42;99235.00;;;5.08;95.77
26376;BME280;30544;42.196;24.336;2022-12-07T05:08:10;99230.56;;;5.13;95.67
26376;BME280;30544;42.196;24.336;2022-12-07T05:10:37;99236.47;;;5.17;94.99
26376;BME280;30544;42.196;24.336;2022-12-07T05:13:04;99239.22;;;5.17;94.64
26376;BME280;30544;42.196;24.336;2022-12-07T05:15:30;99246.41;;;4.98;95.40
26376;BME280;30544;42.196;24.336;2022-12-07T05:17:57;99248.31;;;4.98;96.22
26376;BME280;30544;42.196;24.336;2022-12-07T05:20:24;99244.53;;;5.05;95.89
26376;BME280;30544;42.196;24.336;2022-12-07T05:22:51;99245.16;;;4.94;96.24
26376;BME280;30544;42.196;24.336;2022-12-07T05:25:19;99242.22;;;4.89;96.06
26376;BME280;30544;42.196;24.336;2022-12-07T05:27:45;99239.66;;;4.94;96.42
26376;BME280;30544;42.196;24.336;2022-12-07T05:32:39;99247.28;;;4.92;96.99
26376;BME280;30544;42.196;24.336;2022-12-07T05:35:07;99248.53;;;4.96;97.42
26376;BME280;30544;42.196;24.336;2022-12-07T05:37:33;99244.72;;;4.97;96.42
26376;BME280;30544;42.196;24.336;2022-12-07T05:40:00;99244.72;;;4.97;96.63
26376;BME280;30544;42.196;24.336;2022-12-07T05:42:32;99246.41;;;4.85;96.41
26376;BME280;30544;42.196;24.336;2022-12-07T05:44:58;99250.44;;;4.96;97.47
26376;BME280;30544;42.196;24.336;2022-12-07T05:47:25;99256.97;;;4.81;97.87
26376;BME280;30544;42.196;24.336;2022-12-07T05:49:51;99259.09;;;4.73;99.67
26376;BME280;30544;42.196;24.336;2022-12-07T05:52:18;99260.59;;;4.89;98.76
26376;BME280;30544;42.196;24.336;2022-12-07T05:54:45;99258.28;;;4.92;97.73
26376;BME280;30544;42.196;24.336;2022-12-07T05:57:12;99265.47;;;5.06;97.54
26376;BME280;30544;42.196;24.336;2022-12-07T05:59:40;99263.75;;;4.92;96.99
26376;BME280;30544;42.196;24.336;2022-12-07T06:02:07;99262.06;;;5.18;96.38
26376;BME280;30544;42.196;24.336;2022-12-07T06:04:37;99261.22;;;5.10;96.15
26376;BME280;30544;42.196;24.336;2022-12-07T06:07:04;99257.44;;;5.25;95.29
26376;BME280;30544;42.196;24.336;2022-12-07T06:09:32;99248.09;;;5.32;95.26
26376;BME280;30544;42.196;24.336;2022-12-07T06:12:00;99243.00;;;5.49;94.46
26376;BME280;30544;42.196;24.336;2022-12-07T06:14:46;99248.31;;;5.44;94.32
26376;BME280;30544;42.196;24.336;2022-12-07T06:17:12;99253.78;;;5.57;94.23
26376;BME280;30544;42.196;24.336;2022-12-07T06:19:40;99252.13;;;5.43;94.77
26376;BME280;30544;42.196;24.336;2022-12-07T06:22:07;99245.94;;;5.61;94.46
26376;BME280;30544;42.196;24.336;2022-12-07T06:24:35;99244.66;;;5.63;94.68
26376;BME280;30544;42.196;24.336;2022-12-07T06:27:02;99245.25;;;5.79;94.10
26376;BME280;30544;42.196;24.336;2022-12-07T06:29:30;99239.75;;;5.92;93.81
26376;BME280;30544;42.196;24.336;2022-12-07T06:31:58;99236.56;;;5.82;94.02
26376;BME280;30544;42.196;24.336;2022-12-07T06:34:25;99239.03;;;6.10;93.78
26376;BME280;30544;42.196;24.336;2022-12-07T06:36:53;99239.78;;;6.30;92.93
26376;BME280;30544;42.196;24.336;2022-12-07T06:39:22;99239.31;;;6.40;92.09
26376;BME280;30544;42.196;24.336;2022-12-07T06:41:50;99238.91;;;6.36;92.49
26376;BME280;30544;42.196;24.336;2022-12-07T06:44:18;99237.53;;;6.52;91.72
26376;BME280;30544;42.196;24.336;2022-12-07T06:46:45;99240.00;;;6.67;92.19
26376;BME280;30544;42.196;24.336;2022-12-07T06:49:13;99248.94;;;6.62;92.40
26376;BME280;30544;42.196;24.336;2022-12-07T06:51:40;99247.28;;;6.86;91.62
26376;BME280;30544;42.196;24.336;2022-12-07T06:54:07;99244.59;;;6.79;90.62
26376;BME280;30544;42.196;24.336;2022-12-07T06:56:34;99248.03;;;7.00;90.81
26376;BME280;30544;42.196;24.336;2022-12-07T06:59:02;99251.59;;;7.07;89.87
26376;BME280;30544;42.196;24.336;2022-12-07T07:01:29;99251.53;;;7.13;89.35
26376;BME280;30544;42.196;24.336;2022-12-07T07:03:56;99243.38;;;7.25;88.57
26376;BME280;30544;42.196;24.336;2022-12-07T07:06:24;99239.66;;;7.13;87.95
26376;BME280;30544;42.196;24.336;2022-12-07T07:08:51;99239.34;;;7.46;88.21
26376;BME280;30544;42.196;24.336;2022-12-07T07:11:17;99240.66;;;7.43;86.65
26376;BME280;30544;42.196;24.336;2022-12-07T07:13:44;99240.59;;;7.50;86.16
26376;BME280;30544;42.196;24.336;2022-12-07T07:16:11;99239.44;;;7.39;86.38
26376;BME280;30544;42.196;24.336;2022-12-07T07:18:38;99241.41;;;7.32;88.49
26376;BME280;30544;42.196;24.336;2022-12-07T07:21:05;99253.97;;;7.28;87.58
26376;BME280;30544;42.196;24.336;2022-12-07T07:23:33;99244.25;;;7.19;88.60
26376;BME280;30544;42.196;24.336;2022-12-07T07:26:00;99251.75;;;7.12;89.56
26376;BME280;30544;42.196;24.336;2022-12-07T07:28:26;99248.34;;;7.41;88.71
26376;BME280;30544;42.196;24.336;2022-12-07T07:30:53;99246.91;;;7.57;87.67
26376;BME280;30544;42.196;24.336;2022-12-07T07:33:20;99245.16;;;7.81;86.26
26376;BME280;30544;42.196;24.336;2022-12-07T07:35:47;99245.28;;;8.04;85.24
26376;BME280;30544;42.196;24.336;2022-12-07T07:38:13;99251.00;;;8.09;86.45
26376;BME280;30544;42.196;24.336;2022-12-07T07:40:41;99262.94;;;8.22;85.03
26376;BME280;30544;42.196;24.336;2022-12-07T07:43:08;99266.59;;;8.40;84.82
26376;BME280;30544;42.196;24.336;2022-12-07T07:45:35;99262.72;;;8.71;84.18
26376;BME280;30544;42.196;24.336;2022-12-07T07:48:03;99261.28;;;8.69;84.80
26376;BME280;30544;42.196;24.336;2022-12-07T07:50:29;99267.47;;;8.83;84.92
26376;BME280;30544;42.196;24.336;2022-12-07T07:52:57;99262.66;;;8.78;84.32
26376;BME280;30544;42.196;24.336;2022-12-07T07:55:23;99261.47;;;8.86;84.52
26376;BME280;30544;42.196;24.336;2022-12-07T07:57:52;99255.84;;;9.04;83.39
26376;BME280;30544;42.196;24.336;2022-12-07T08:00:19;99264.72;;;9.24;82.78
26376;BME280;30544;42.196;24.336;2022-12-07T08:02:45;99259.53;;;9.40;81.63
26376;BME280;30544;42.196;24.336;2022-12-07T08:05:13;99260.38;;;9.52;81.86
26376;BME280;30544;42.196;24.336;2022-12-07T08:07:40;99257.94;;;9.20;81.92
26376;BME280;30544;42.196;24.336;2022-12-07T08:10:10;99262.19;;;9.34;82.31
26376;BME280;30544;42.196;24.336;2022-12-07T08:12:38;99261.84;;;9.43;82.15
26376;BME280;30544;42.196;24.336;2022-12-07T08:15:28;99265.59;;;9.60;82.11
26376;BME280;30544;42.196;24.336;2022-12-07T08:17:55;99264.47;;;9.84;82.38
26376;BME280;30544;42.196;24.336;2022-12-07T08:20:22;99258.44;;;9.87;81.25
26376;BME280;30544;42.196;24.336;2022-12-07T08:22:49;99261.34;;;9.92;79.83
26376;BME280;30544;42.196;24.336;2022-12-07T08:25:16;99270.03;;;9.84;80.69
26376;BME280;30544;42.196;24.336;2022-12-07T08:27:42;99253.50;;;10.13;80.66
26376;BME280;30544;42.196;24.336;2022-12-07T08:30:10;99255.84;;;9.57;81.36
26376;BME280;30544;42.196;24.336;2022-12-07T08:32:38;99251.00;;;9.76;81.41
26376;BME280;30544;42.196;24.336;2022-12-07T08:35:05;99253.50;;;9.89;81.13
26376;BME280;30544;42.196;24.336;2022-12-07T08:37:32;99241.31;;;10.14;79.86
26376;BME280;30544;42.196;24.336;2022-12-07T08:39:59;99243.34;;;10.18;79.98
26376;BME280;30544;42.196;24.336;2022-12-07T08:42:26;99237.81;;;10.30;79.30
26376;BME280;30544;42.196;24.336;2022-12-07T08:44:55;99238.50;;;10.37;78.80
26376;BME280;30544;42.196;24.336;2022-12-07T08:47:23;99240.16;;;9.86;81.00
26376;BME280;30544;42.196;24.336;2022-12-07T08:49:52;99237.94;;;10.12;79.46
26376;BME280;30544;42.196;24.336;2022-12-07T08:52:20;99230.59;;;10.58;79.11
26376;BME280;30544;42.196;24.336;2022-12-07T08:54:47;99226.47;;;11.05;77.16
26376;BME280;30544;42.196;24.336;2022-12-07T08:57:14;99227.84;;;10.74;77.73
26376;BME280;30544;42.196;24.336;2022-12-07T08:59:41;99233.06;;;10.71;78.06
26376;BME280;30544;42.196;24.336;2022-12-07T09:02:08;99221.28;;;10.92;76.51
26376;BME280;30544;42.196;24.336;2022-12-07T09:04:35;99226.81;;;10.92;76.23
26376;BME280;30544;42.196;24.336;2022-12-07T09:07:03;99215.25;;;11.12;75.78
26376;BME280;30544;42.196;24.336;2022-12-07T09:09:30;99213.03;;;11.64;74.29
26376;BME280;30544;42.196;24.336;2022-12-07T09:11:57;99208.84;;;11.45;74.04
26376;BME280;30544;42.196;24.336;2022-12-07T09:14:23;99210.88;;;11.88;73.92
26376;BME280;30544;42.196;24.336;2022-12-07T09:16:50;99198.34;;;11.86;72.68
26376;BME280;30544;42.196;24.336;2022-12-07T09:19:17;99200.03;;;12.09;72.51
26376;BME280;30544;42.196;24.336;2022-12-07T09:21:44;99196.13;;;12.26;71.15
26376;BME280;30544;42.196;24.336;2022-12-07T09:24:13;99187.69;;;11.61;73.87
26376;BME280;30544;42.196;24.336;2022-12-07T09:26:39;99186.91;;;11.65;72.78
26376;BME280;30544;42.196;24.336;2022-12-07T09:29:06;99181.31;;;11.60;72.26
26376;BME280;30544;42.196;24.336;2022-12-07T09:31:35;99179.44;;;12.04;71.53
26376;BME280;30544;42.196;24.336;2022-12-07T09:34:02;99175.91;;;11.92;71.20
26376;BME280;30544;42.196;24.336;2022-12-07T09:36:30;99183.03;;;11.66;71.81
26376;BME280;30544;42.196;24.336;2022-12-07T09:38:57;99181.06;;;11.45;72.22
26376;BME280;30544;42.196;24.336;2022-12-07T09:41:27;99179.16;;;12.06;70.54
26376;BME280;30544;42.196;24.336;2022-12-07T09:44:03;99167.94;;;11.96;70.51
26376;BME280;30544;42.196;24.336;2022-12-07T09:46:34;99172.25;;;11.87;68.86
26376;BME280;30544;42.196;24.336;2022-12-07T09:49:03;99164.63;;;11.99;69.42
26376;BME280;30544;42.196;24.336;2022-12-07T09:51:30;99162.53;;;11.51;70.42
26376;BME280;30544;42.196;24.336;2022-12-07T09:53:58;99153.56;;;11.82;70.96
26376;BME280;30544;42.196;24.336;2022-12-07T09:56:28;99145.88;;;12.11;70.10
26376;BME280;30544;42.196;24.336;2022-12-07T09:58:59;99140.16;;;11.40;70.67
26376;BME280;30544;42.196;24.336;2022-12-07T10:01:28;99148.16;;;11.37;70.54
26376;BME280;30544;42.196;24.336;2022-12-07T10:04:01;99151.13;;;11.30;72.33
26376;BME280;30544;42.196;24.336;2022-12-07T10:06:32;99155.19;;;11.61;69.81
26376;BME280;30544;42.196;24.336;2022-12-07T10:08:59;99148.97;;;11.54;71.52
26376;BME280;30544;42.196;24.336;2022-12-07T10:11:27;99155.25;;;11.66;71.90
26376;BME280;30544;42.196;24.336;2022-12-07T10:13:54;99143.75;;;11.96;71.28
26376;BME280;30544;42.196;24.336;2022-12-07T10:16:38;99138.59;;;12.59;69.10
26376;BME280;30544;42.196;24.336;2022-12-07T10:19:18;99138.84;;;12.52;68.16
26376;BME280;30544;42.196;24.336;2022-12-07T10:22:01;99131.41;;;11.87;70.58
26376;BME280;30544;42.196;24.336;2022-12-07T10:24:28;99132.88;;;12.71;67.60
26376;BME280;30544;42.196;24.336;2022-12-07T10:26:56;99131.97;;;12.92;67.74
26376;BME280;30544;42.196;24.336;2022-12-07T10:29:26;99135.78;;;12.81;69.47
26376;BME280;30544;42.196;24.336;2022-12-07T10:31:56;99130.38;;;12.69;69.33
26376;BME280;30544;42.196;24.336;2022-12-07T10:34:25;99125.41;;;13.08;67.74
26376;BME280;30544;42.196;24.336;2022-12-07T10:36:53;99132.50;;;12.89;67.72
26376;BME280;30544;42.196;24.336;2022-12-07T10:39:21;99141.38;;;12.86;68.33
26376;BME280;30544;42.196;24.336;2022-12-07T10:41:57;99130.13;;;13.03;68.11
26376;BME280;30544;42.196;24.336;2022-12-07T10:44:26;99129.69;;;13.53;67.37
26376;BME280;30544;42.196;24.336;2022-12-07T10:47:18;99131.22;;;12.70;68.58
26376;BME280;30544;42.196;24.336;2022-12-07T10:50:11;99128.19;;;13.08;67.70
26376;BME280;30544;42.196;24.336;2022-12-07T10:52:58;99129.75;;;13.26;67.85
26376;BME280;30544;42.196;24.336;2022-12-07T10:55:39;99128.38;;;13.66;65.31
26376;BME280;30544;42.196;24.336;2022-12-07T10:58:34;99136.22;;;13.00;66.23
26376;BME280;30544;42.196;24.336;2022-12-07T11:01:12;99124.63;;;13.13;66.16
26376;BME280;30544;42.196;24.336;2022-12-07T11:06:35;99115.28;;;12.60;66.78
26376;BME280;30544;42.196;24.336;2022-12-07T11:09:26;99113.38;;;12.98;67.18
26376;BME280;30544;42.196;24.336;2022-12-07T11:12:01;99106.63;;;12.29;70.20
26376;BME280;30544;42.196;24.336;2022-12-07T11:14:41;99102.72;;;12.89;69.76
26376;BME280;30544;42.196;24.336;2022-12-07T11:17:16;99097.78;;;12.97;69.34
26376;BME280;30544;42.196;24.336;2022-12-07T11:19:58;99096.25;;;12.52;70.12
26376;BME280;30544;42.196;24.336;2022-12-07T11:22:35;99091.94;;;12.66;69.43
26376;BME280;30544;42.196;24.336;2022-12-07T11:25:17;99092.97;;;12.87;66.55
26376;BME280;30544;42.196;24.336;2022-12-07T11:27:56;99083.53;;;13.25;65.33
26376;BME280;30544;42.196;24.336;2022-12-07T11:30:34;99079.47;;;13.06;65.36
26376;BME280;30544;42.196;24.336;2022-12-07T11:33:11;99084.69;;;13.29;66.25
26376;BME280;30544;42.196;24.336;2022-12-07T11:35:50;99071.63;;;13.35;64.31
26376;BME280;30544;42.196;24.336;2022-12-07T11:38:21;99056.50;;;12.88;65.12
26376;BME280;30544;42.196;24.336;2022-12-07T11:40:49;99047.56;;;13.18;64.48
26376;BME280;30544;42.196;24.336;2022-12-07T11:43:22;99048.56;;;13.44;63.87
26376;BME280;30544;42.196;24.336;2022-12-07T11:45:59;99057.44;;;13.36;62.89
26376;BME280;30544;42.196;24.336;2022-12-07T11:48:33;99056.41;;;13.58;63.22
26376;BME280;30544;42.196;24.336;2022-12-07T11:51:02;99044.47;;;13.15;64.63
26376;BME280;30544;42.196;24.336;2022-12-07T11:53:33;99054.94;;;13.40;65.08
26376;BME280;30544;42.196;24.336;2022-12-07T11:56:06;99046.06;;;13.06;65.80
26376;BME280;30544;42.196;24.336;2022-12-07T11:58:46;99064.34;;;12.59;66.81
26376;BME280;30544;42.196;24.336;2022-12-07T12:01:41;99052.06;;;12.87;66.10
26376;BME280;30544;42.196;24.336;2022-12-07T12:04:22;99054.28;;;12.90;66.44
26376;BME280;30544;42.196;24.336;2022-12-07T12:06:50;99056.72;;;12.45;67.99
26376;BME280;30544;42.196;24.336;2022-12-07T12:09:23;99043.19;;;12.26;67.84
26376;BME280;30544;42.196;24.336;2022-12-07T12:15:16;99033.03;;;12.74;67.20
26376;BME280;30544;42.196;24.336;2022-12-07T12:20:42;99012.53;;;12.85;67.37
26376;BME280;30544;42.196;24.336;2022-12-07T12:23:12;99008.06;;;12.84;67.85
26376;BME280;30544;42.196;24.336;2022-12-07T12:25:44;99012.59;;;12.95;67.35
26376;BME280;30544;42.196;24.336;2022-12-07T12:28:27;99009.72;;;12.80;66.87
26376;BME280;30544;42.196;24.336;2022-12-07T12:31:07;99008.13;;;12.25;68.56
26376;BME280;30544;42.196;24.336;2022-12-07T12:33:38;99012.91;;;12.62;67.68
26376;BME280;30544;42.196;24.336;2022-12-07T12:36:20;99011.88;;;12.73;67.54
26376;BME280;30544;42.196;24.336;2022-12-07T12:38:51;99003.47;;;12.63;67.74
26376;BME280;30544;42.196;24.336;2022-12-07T12:44:42;99014.88;;;12.34;68.93
26376;BME280;30544;42.196;24.336;2022-12-07T12:48:03;99010.41;;;12.28;69.25
26376;BME280;30544;42.196;24.336;2022-12-07T12:50:32;99010.03;;;12.52;69.22
26376;BME280;30544;42.196;24.336;2022-12-07T12:53:14;99016.34;;;12.10;70.08
26376;BME280;30544;42.196;24.336;2022-12-07T12:58:37;99014.34;;;12.38;69.18
26376;BME280;30544;42.196;24.336;2022-12-07T13:01:43;99013.75;;;12.30;69.04
26376;BME280;30544;42.196;24.336;2022-12-07T13:04:37;99019.78;;;12.22;69.25
26376;BME280;30544;42.196;24.336;2022-12-07T13:07:12;99019.69;;;12.12;69.66
26376;BME280;30544;42.196;24.336;2022-12-07T13:09:42;99010.03;;;12.20;69.76
26376;BME280;30544;42.196;24.336;2022-12-07T13:12:15;99006.66;;;12.18;70.28
26376;BME280;30544;42.196;24.336;2022-12-07T13:14:58;99011.94;;;12.14;70.04
26376;BME280;30544;42.196;24.336;2022-12-07T13:20:50;99014.50;;;11.94;70.41
26376;BME280;30544;42.196;24.336;2022-12-07T13:23:30;99020.16;;;12.04;70.02
26376;BME280;30544;42.196;24.336;2022-12-07T13:26:16;99006.31;;;11.82;70.62
26376;BME280;30544;42.196;24.336;2022-12-07T13:28:45;99009.56;;;12.01;70.25
26376;BME280;30544;42.196;24.336;2022-12-07T13:31:33;99014.72;;;11.92;69.97
26376;BME280;30544;42.196;24.336;2022-12-07T13:34:02;99011.56;;;11.79;71.18
26376;BME280;30544;42.196;24.336;2022-12-07T13:36:33;99004.94;;;11.85;70.96
26376;BME280;30544;42.196;24.336;2022-12-07T13:39:17;99016.66;;;11.92;70.34